createdAt,value
2017-07-18T00:01:14.535Z,34.30
2017-07-18T00:03:42.266Z,34.40
2017-07-18T00:06:09.977Z,34.40
2017-07-18T00:08:37.720Z,34.60
2017-07-18T00:11:05.491Z,34.70
2017-07-18T00:13:33.256Z,34.80
2017-07-18T00:16:00.988Z,34.60
2017-07-18T00:18:28.769Z,34.70
2017-07-18T00:20:56.479Z,34.80
2017-07-18T00:23:24.193Z,34.90
2017-07-18T00:25:51.900Z,34.80
2017-07-18T00:28:19.608Z,34.90
2017-07-18T00:30:47.316Z,34.90
2017-07-18T00:33:15.034Z,35.00
2017-07-18T00:35:42.757Z,35.00
2017-07-18T00:38:10.480Z,34.80
2017-07-18T00:40:38.257Z,35.00
2017-07-18T00:43:06.033Z,35.20
2017-07-18T00:45:33.837Z,35.30
2017-07-18T00:48:01.606Z,35.30
2017-07-18T00:50:29.402Z,35.50
2017-07-18T00:52:57.260Z,35.60
2017-07-18T00:55:25.031Z,35.30
2017-07-18T00:57:52.756Z,35.00
2017-07-18T01:00:20.474Z,35.30
2017-07-18T01:02:48.240Z,35.30
2017-07-18T01:05:16.017Z,35.10
2017-07-18T01:07:43.723Z,35.40
2017-07-18T01:10:11.431Z,35.20
2017-07-18T01:12:39.156Z,35.40
2017-07-18T01:15:06.883Z,35.50
2017-07-18T01:17:34.600Z,35.60
2017-07-18T01:20:02.395Z,35.50
2017-07-18T01:22:30.172Z,35.60
2017-07-18T01:24:57.935Z,35.50
2017-07-18T01:27:25.648Z,35.40
2017-07-18T01:29:53.391Z,35.50
2017-07-18T01:32:21.162Z,35.30
2017-07-18T01:34:48.942Z,35.40
2017-07-18T01:37:16.684Z,35.40
2017-07-18T01:39:44.400Z,35.70
2017-07-18T01:42:12.111Z,35.40
2017-07-18T01:44:39.893Z,35.50
2017-07-18T01:49:41.587Z,35.40
2017-07-18T01:52:09.302Z,35.20
2017-07-18T01:54:37.012Z,35.30
2017-07-18T01:57:04.732Z,35.00
2017-07-18T01:59:32.564Z,35.00
2017-07-18T02:02:00.341Z,34.90
2017-07-18T02:04:28.126Z,35.00
2017-07-18T02:06:55.908Z,34.90
2017-07-18T02:09:23.627Z,35.00
2017-07-18T02:11:51.423Z,35.20
2017-07-18T02:14:19.187Z,35.20
2017-07-18T02:16:46.901Z,35.10
2017-07-18T02:19:14.702Z,35.30
2017-07-18T02:21:42.415Z,35.30
2017-07-18T02:24:10.129Z,35.40
2017-07-18T02:26:37.874Z,35.40
2017-07-18T02:29:05.597Z,36.00
2017-07-18T02:31:33.357Z,36.00
2017-07-18T02:34:01.133Z,36.20
2017-07-18T02:36:28.913Z,36.10
2017-07-18T02:38:56.619Z,35.80
2017-07-18T02:41:24.415Z,36.10
2017-07-18T02:43:52.129Z,36.10
2017-07-18T02:46:19.857Z,35.90
2017-07-18T02:48:47.666Z,36.00
2017-07-18T02:51:15.456Z,35.80
2017-07-18T02:53:43.183Z,36.00
2017-07-18T02:56:10.887Z,35.90
2017-07-18T02:58:38.623Z,36.00
2017-07-18T03:01:06.392Z,35.90
2017-07-18T03:03:34.136Z,35.70
2017-07-18T03:06:01.870Z,35.80
2017-07-18T03:08:29.676Z,35.80
2017-07-18T03:10:57.449Z,35.90
2017-07-18T03:13:25.185Z,35.90
2017-07-18T03:15:52.955Z,35.90
2017-07-18T03:18:20.750Z,36.00
2017-07-18T03:20:48.477Z,35.70
2017-07-18T03:23:16.202Z,35.80
2017-07-18T03:25:44.033Z,35.50
2017-07-18T03:28:11.800Z,35.60
2017-07-18T03:30:39.577Z,35.80
2017-07-18T03:33:07.353Z,35.80
2017-07-18T03:35:35.067Z,35.90
2017-07-18T03:38:02.776Z,36.00
2017-07-18T03:40:30.518Z,35.70
2017-07-18T03:42:58.252Z,35.80
2017-07-18T03:45:28.881Z,35.70
2017-07-18T03:47:56.673Z,36.30
2017-07-18T03:50:24.383Z,36.50
2017-07-18T03:52:52.208Z,36.40
2017-07-18T03:55:19.921Z,36.70
2017-07-18T03:57:47.722Z,36.40
2017-07-18T04:00:15.462Z,35.80
2017-07-18T04:02:43.233Z,36.10
2017-07-18T04:05:10.961Z,36.30
2017-07-18T04:07:38.758Z,35.80
2017-07-18T04:10:06.477Z,35.60
2017-07-18T04:12:34.267Z,35.50
2017-07-18T04:15:02.074Z,35.80
2017-07-18T04:17:30.860Z,35.70
2017-07-18T04:19:58.672Z,36.60
2017-07-18T04:22:26.390Z,36.00
2017-07-18T04:24:54.108Z,36.20
2017-07-18T04:27:21.817Z,36.30
2017-07-18T04:29:49.546Z,36.40
2017-07-18T04:32:17.261Z,36.30
2017-07-18T04:34:44.983Z,36.50
2017-07-18T04:37:12.737Z,38.30
2017-07-18T04:39:40.508Z,39.60
2017-07-18T04:42:08.295Z,40.60
2017-07-18T04:44:36.020Z,40.80
2017-07-18T04:47:03.733Z,41.50
2017-07-18T04:49:31.462Z,41.90
2017-07-18T04:51:59.251Z,42.10
2017-07-18T04:54:27.024Z,41.90
2017-07-18T04:56:54.808Z,41.60
2017-07-18T04:59:22.523Z,41.60
2017-07-18T05:01:50.324Z,41.40
2017-07-18T05:04:18.039Z,41.20
2017-07-18T05:06:45.776Z,40.50
2017-07-18T05:09:13.497Z,39.80
2017-07-18T05:11:41.272Z,39.40
2017-07-18T05:14:09.071Z,39.20
2017-07-18T05:16:36.805Z,38.90
2017-07-18T05:19:04.513Z,38.00
2017-07-18T05:21:32.313Z,37.60
2017-07-18T05:24:00.082Z,38.00
2017-07-18T05:26:27.856Z,38.00
2017-07-18T05:28:55.649Z,38.20
2017-07-18T05:31:23.373Z,38.30
2017-07-18T05:33:51.096Z,38.50
2017-07-18T05:36:18.827Z,38.50
2017-07-18T05:38:46.636Z,37.80
2017-07-18T05:41:14.438Z,38.10
2017-07-18T05:43:42.235Z,38.20
2017-07-18T05:46:10.031Z,37.70
2017-07-18T05:48:37.753Z,37.60
2017-07-18T05:51:05.548Z,37.40
2017-07-18T05:53:33.254Z,37.30
2017-07-18T05:56:01.021Z,36.00
2017-07-18T05:58:28.817Z,36.00
2017-07-18T06:00:56.584Z,35.40
2017-07-18T06:03:24.348Z,35.40
2017-07-18T06:05:52.086Z,35.70
2017-07-18T06:08:19.851Z,35.50
2017-07-18T06:10:47.582Z,35.40
2017-07-18T06:13:15.325Z,35.80
2017-07-18T06:15:43.111Z,35.40
2017-07-18T06:18:10.917Z,35.10
2017-07-18T06:20:38.645Z,35.30
2017-07-18T06:23:07.228Z,34.80
2017-07-18T06:25:35.011Z,34.60
2017-07-18T06:28:02.733Z,34.70
2017-07-18T06:30:30.562Z,34.00
2017-07-18T06:32:58.283Z,34.30
2017-07-18T06:35:26.024Z,33.60
2017-07-18T06:37:53.801Z,36.60
2017-07-18T06:40:21.572Z,34.30
2017-07-18T06:42:49.359Z,33.40
2017-07-18T06:45:17.101Z,32.80
2017-07-18T06:47:44.827Z,33.50
2017-07-18T06:50:12.605Z,33.80
2017-07-18T06:52:40.344Z,32.40
2017-07-18T06:55:08.157Z,33.00
2017-07-18T06:57:35.943Z,34.10
2017-07-18T07:00:03.712Z,34.50
2017-07-18T07:02:31.452Z,33.70
2017-07-18T07:04:59.162Z,34.50
2017-07-18T07:07:26.931Z,32.60
2017-07-18T07:09:54.681Z,33.00
2017-07-18T07:12:22.403Z,34.10
2017-07-18T07:14:50.168Z,33.00
2017-07-18T07:17:17.956Z,32.80
2017-07-18T07:19:45.697Z,34.00
2017-07-18T07:22:13.430Z,32.90
2017-07-18T07:24:41.153Z,34.00
2017-07-18T07:27:08.898Z,33.10
2017-07-18T07:29:36.607Z,33.40
2017-07-18T07:32:04.391Z,32.30
2017-07-18T07:34:32.182Z,32.80
2017-07-18T07:36:59.895Z,33.00
2017-07-18T07:39:27.668Z,33.10
2017-07-18T07:41:55.435Z,34.10
2017-07-18T07:44:23.196Z,33.50
2017-07-18T07:46:50.915Z,33.50
2017-07-18T07:49:18.629Z,33.30
2017-07-18T07:51:46.358Z,33.90
2017-07-18T07:54:14.085Z,34.00
2017-07-18T07:56:41.872Z,33.60
2017-07-18T07:59:09.593Z,33.00
2017-07-18T08:01:37.320Z,32.60
2017-07-18T08:04:05.097Z,32.80
2017-07-18T08:06:32.818Z,34.50
2017-07-18T08:09:00.553Z,33.80
2017-07-18T08:11:28.329Z,34.90
2017-07-18T08:13:56.103Z,33.40
2017-07-18T08:16:23.874Z,33.30
2017-07-18T08:18:51.601Z,34.90
2017-07-18T08:21:19.321Z,31.70
2017-07-18T08:23:47.207Z,31.60
2017-07-18T08:26:14.927Z,30.60
2017-07-18T08:28:43.632Z,31.10
2017-07-18T08:31:11.452Z,32.50
2017-07-18T08:33:39.171Z,31.10
2017-07-18T08:36:06.899Z,31.90
2017-07-18T08:38:34.642Z,35.70
2017-07-18T08:41:02.353Z,35.70
2017-07-18T08:43:30.076Z,36.00
2017-07-18T08:45:57.847Z,35.80
2017-07-18T08:48:25.572Z,35.70
2017-07-18T08:50:53.339Z,31.00
2017-07-18T08:53:21.142Z,31.50
2017-07-18T08:55:48.933Z,35.80
2017-07-18T08:58:16.711Z,35.80
2017-07-18T09:00:44.441Z,36.00
2017-07-18T09:03:12.233Z,35.70
2017-07-18T09:05:40.031Z,35.50
2017-07-18T09:08:07.757Z,34.50
2017-07-18T09:10:35.478Z,34.90
2017-07-18T09:13:03.253Z,33.80
2017-07-18T09:15:31.038Z,34.90
2017-07-18T09:17:58.780Z,35.10
2017-07-18T09:20:26.603Z,35.00
2017-07-18T09:22:54.394Z,35.50
2017-07-18T09:25:22.117Z,33.60
2017-07-18T09:27:49.925Z,34.90
2017-07-18T09:30:17.721Z,35.70
2017-07-18T09:32:45.513Z,35.60
2017-07-18T09:35:13.223Z,34.90
2017-07-18T09:37:41.016Z,35.20
2017-07-18T09:40:08.805Z,34.30
2017-07-18T09:42:36.626Z,35.00
2017-07-18T09:45:04.363Z,34.90
2017-07-18T09:47:32.085Z,35.00
2017-07-18T09:49:59.854Z,33.90
2017-07-18T09:52:27.655Z,33.90
2017-07-18T09:54:55.366Z,34.20
2017-07-18T09:57:23.136Z,34.90
2017-07-18T09:59:50.858Z,35.40
2017-07-18T10:02:18.630Z,35.40
2017-07-18T10:04:46.367Z,34.30
2017-07-18T10:07:14.093Z,35.70
2017-07-18T10:09:41.807Z,35.70
2017-07-18T10:12:09.514Z,35.30
2017-07-18T10:14:37.252Z,35.70
2017-07-18T10:17:04.981Z,35.70
2017-07-18T10:19:32.770Z,35.10
2017-07-18T10:22:00.477Z,35.80
2017-07-18T10:24:28.280Z,35.70
2017-07-18T10:26:56.087Z,34.10
2017-07-18T10:29:23.819Z,35.40
2017-07-18T10:31:51.545Z,34.40
2017-07-18T10:34:19.316Z,35.60
2017-07-18T10:36:47.988Z,34.50
2017-07-18T10:39:15.771Z,34.10
2017-07-18T10:41:43.540Z,34.50
2017-07-18T10:44:11.327Z,35.70
2017-07-18T10:46:39.101Z,35.30
2017-07-18T10:49:06.870Z,35.80
2017-07-18T10:51:34.655Z,35.90
2017-07-18T10:54:02.468Z,35.00
2017-07-18T10:56:30.189Z,35.70
2017-07-18T10:58:57.904Z,35.70
2017-07-18T11:01:25.617Z,35.70
2017-07-18T11:03:53.328Z,35.40
2017-07-18T11:06:21.129Z,35.50
2017-07-18T11:08:48.864Z,34.30
2017-07-18T11:11:16.596Z,35.60
2017-07-18T11:13:44.306Z,35.70
2017-07-18T11:16:12.023Z,35.80
2017-07-18T11:18:39.736Z,35.70
2017-07-18T11:21:07.472Z,35.70
2017-07-18T11:23:35.285Z,35.80
2017-07-18T11:26:03.083Z,34.40
2017-07-18T11:28:30.832Z,35.70
2017-07-18T11:30:58.599Z,35.60
2017-07-18T11:33:26.372Z,35.50
2017-07-18T11:35:54.148Z,35.60
2017-07-18T11:38:21.860Z,35.50
2017-07-18T11:40:49.596Z,35.00
2017-07-18T11:43:17.316Z,35.10
2017-07-18T11:45:45.079Z,35.30
2017-07-18T11:48:12.894Z,35.20
2017-07-18T11:50:40.672Z,34.50
2017-07-18T11:53:08.443Z,35.60
2017-07-18T11:55:36.210Z,35.50
2017-07-18T11:58:03.937Z,35.60
2017-07-18T12:00:31.659Z,35.50
2017-07-18T12:02:59.373Z,35.10
2017-07-18T12:05:27.172Z,35.10
2017-07-18T12:07:54.980Z,34.70
2017-07-18T12:10:22.755Z,35.20
2017-07-18T12:12:50.506Z,35.40
2017-07-18T12:15:18.223Z,35.50
2017-07-18T12:17:46.009Z,34.80
2017-07-18T12:20:13.780Z,35.60
2017-07-18T12:22:41.515Z,35.70
2017-07-18T12:25:09.285Z,35.70
2017-07-18T12:27:37.008Z,35.70
2017-07-18T12:30:04.783Z,35.60
2017-07-18T12:32:32.575Z,35.60
2017-07-18T12:35:00.352Z,35.80
2017-07-18T12:37:28.064Z,35.70
2017-07-18T12:39:55.772Z,35.30
2017-07-18T12:42:23.554Z,35.60
2017-07-18T12:44:51.334Z,34.90
2017-07-18T12:47:19.109Z,35.20
2017-07-18T12:49:46.838Z,35.40
2017-07-18T12:52:14.560Z,35.60
2017-07-18T12:54:43.163Z,35.80
2017-07-18T12:57:10.974Z,34.80
2017-07-18T12:59:38.752Z,35.00
2017-07-18T13:02:06.546Z,35.30
2017-07-18T13:04:34.269Z,35.50
2017-07-18T13:07:02.036Z,35.50
2017-07-18T13:09:29.758Z,35.40
2017-07-18T13:11:57.564Z,35.60
2017-07-18T13:14:25.336Z,35.60
2017-07-18T13:16:53.117Z,35.70
2017-07-18T13:19:20.848Z,35.90
2017-07-18T13:21:48.627Z,35.70
2017-07-18T13:26:50.146Z,36.00
2017-07-18T13:29:17.926Z,35.50
2017-07-18T13:31:45.731Z,35.50
2017-07-18T13:34:13.530Z,35.90
2017-07-18T13:36:41.570Z,35.80
2017-07-18T13:39:09.304Z,36.00
2017-07-18T13:41:37.083Z,36.30
2017-07-18T13:44:04.860Z,35.80
2017-07-18T13:46:32.633Z,35.90
2017-07-18T13:49:00.416Z,36.00
2017-07-18T13:51:28.141Z,36.00
2017-07-18T13:53:55.855Z,36.00
2017-07-18T13:56:23.640Z,36.00
2017-07-18T13:58:51.363Z,36.20
2017-07-18T14:01:19.194Z,36.20
2017-07-18T14:03:46.920Z,36.20
2017-07-18T14:06:14.659Z,36.20
2017-07-18T14:08:42.468Z,36.10
2017-07-18T14:11:10.256Z,36.30
2017-07-18T14:13:38.031Z,36.10
2017-07-18T14:16:05.753Z,36.00
2017-07-18T14:18:33.540Z,35.60
2017-07-18T14:21:01.333Z,36.10
2017-07-18T14:23:29.115Z,36.10
2017-07-18T14:25:56.875Z,36.20
2017-07-18T14:28:24.644Z,36.30
2017-07-18T14:30:52.423Z,36.20
2017-07-18T14:33:20.176Z,36.10
2017-07-18T14:35:48.004Z,36.00
2017-07-18T14:38:15.779Z,36.00
2017-07-18T14:40:43.557Z,36.20
2017-07-18T14:43:11.342Z,35.90
2017-07-18T14:45:39.050Z,36.00
2017-07-18T14:48:06.850Z,36.00
2017-07-18T14:50:34.642Z,35.90
2017-07-18T14:53:02.362Z,36.00
2017-07-18T14:55:30.084Z,35.90
2017-07-18T14:57:57.808Z,35.80
2017-07-18T15:00:25.524Z,35.70
2017-07-18T15:02:53.336Z,35.40
2017-07-18T15:05:21.113Z,35.40
2017-07-18T15:07:48.900Z,35.80
2017-07-18T15:10:16.680Z,35.90
2017-07-18T15:12:44.429Z,36.00
2017-07-18T15:15:12.168Z,36.10
2017-07-18T15:17:39.910Z,36.10
2017-07-18T15:20:07.689Z,36.00
2017-07-18T15:22:35.466Z,36.10
2017-07-18T15:25:03.189Z,36.00
2017-07-18T15:27:31.530Z,36.20
2017-07-18T15:29:59.328Z,36.30
2017-07-18T15:32:27.674Z,36.00
2017-07-18T15:34:55.443Z,36.20
2017-07-18T15:37:24.073Z,36.30
2017-07-18T15:39:51.873Z,36.20
2017-07-18T15:42:19.605Z,36.20
2017-07-18T15:44:47.387Z,36.30
2017-07-18T15:47:15.109Z,36.20
2017-07-18T15:49:42.834Z,36.20
2017-07-18T15:52:10.639Z,36.10
2017-07-18T15:54:38.415Z,36.20
2017-07-18T15:57:06.206Z,36.40
2017-07-18T15:59:33.993Z,36.20
2017-07-18T16:02:01.732Z,36.20
2017-07-18T16:04:29.513Z,36.30
2017-07-18T16:06:57.251Z,36.00
2017-07-18T16:09:25.023Z,36.20
2017-07-18T16:11:52.744Z,36.10
2017-07-18T16:14:20.563Z,36.10
2017-07-18T16:16:48.318Z,36.10
2017-07-18T16:19:16.083Z,36.10
2017-07-18T16:21:43.829Z,35.70
2017-07-18T16:24:11.580Z,35.90
2017-07-18T16:26:39.368Z,35.90
2017-07-18T16:29:07.108Z,36.00
2017-07-18T16:31:34.863Z,36.20
2017-07-18T16:34:02.595Z,35.60
2017-07-18T16:36:30.333Z,36.00
2017-07-18T16:38:58.125Z,36.20
2017-07-18T16:41:25.924Z,35.60
2017-07-18T16:43:53.650Z,34.90
2017-07-18T16:46:24.497Z,35.70
2017-07-18T16:48:52.256Z,35.20
2017-07-18T16:51:20.040Z,35.20
2017-07-18T16:53:47.839Z,34.70
2017-07-18T16:56:15.668Z,34.80
2017-07-18T16:58:43.442Z,34.60
2017-07-18T17:01:11.250Z,34.60
2017-07-18T17:03:39.066Z,34.50
2017-07-18T17:06:06.789Z,34.40
2017-07-18T17:08:34.580Z,35.40
2017-07-18T17:11:02.336Z,34.90
2017-07-18T17:13:33.855Z,34.60
2017-07-18T17:16:01.596Z,34.50
2017-07-18T17:18:30.020Z,34.60
2017-07-18T17:20:59.746Z,34.60
2017-07-18T17:23:27.553Z,34.90
2017-07-18T17:25:55.304Z,34.70
2017-07-18T17:28:23.125Z,35.60
2017-07-18T17:30:53.554Z,34.90
2017-07-18T17:33:21.383Z,34.90
2017-07-18T17:35:49.202Z,35.10
2017-07-18T17:38:17.023Z,35.30
2017-07-18T17:40:44.812Z,35.30
2017-07-18T17:43:12.645Z,35.30
2017-07-18T17:45:40.435Z,35.70
2017-07-18T17:48:08.334Z,35.70
2017-07-18T17:50:36.103Z,35.70
2017-07-18T17:53:04.272Z,35.80
2017-07-18T17:55:32.382Z,36.00
2017-07-18T17:58:01.100Z,35.80
2017-07-18T18:00:29.067Z,35.70
2017-07-18T18:02:56.938Z,35.80
2017-07-18T18:05:24.811Z,35.90
2017-07-18T18:07:54.148Z,35.90
2017-07-18T18:10:21.907Z,36.00
2017-07-18T18:12:56.701Z,35.90
2017-07-18T18:15:26.658Z,36.10
2017-07-18T18:17:54.492Z,35.80
2017-07-18T18:20:24.338Z,36.00
2017-07-18T18:25:26.871Z,36.30
2017-07-18T18:27:57.516Z,35.90
2017-07-18T18:30:26.689Z,35.80
2017-07-18T18:32:54.447Z,36.20
2017-07-18T18:35:22.637Z,36.00
2017-07-18T18:37:51.256Z,35.70
2017-07-18T18:40:19.892Z,35.90
2017-07-18T18:42:48.613Z,35.90
2017-07-18T18:45:16.519Z,35.80
2017-07-18T18:47:44.380Z,35.80
2017-07-18T18:50:12.713Z,35.70
2017-07-18T18:52:40.543Z,35.70
2017-07-18T18:55:08.317Z,35.70
2017-07-18T18:57:39.458Z,35.70
2017-07-18T19:00:07.537Z,35.70
2017-07-18T19:02:36.260Z,35.80
2017-07-18T19:05:04.838Z,35.80
2017-07-18T19:07:32.835Z,35.70
2017-07-18T19:10:01.250Z,35.70
2017-07-18T19:12:29.187Z,35.80
2017-07-18T19:14:57.038Z,35.90
2017-07-18T19:17:24.797Z,35.80
2017-07-18T19:19:53.857Z,35.90
2017-07-18T19:22:21.674Z,35.70
2017-07-18T19:24:49.404Z,35.70
2017-07-18T19:27:17.131Z,36.30
2017-07-18T19:29:44.923Z,35.60
2017-07-18T19:32:12.652Z,35.80
2017-07-18T19:34:40.439Z,35.40
2017-07-18T19:37:08.205Z,35.60
2017-07-18T19:39:35.994Z,36.50
2017-07-18T19:42:04.607Z,35.80
2017-07-18T19:44:32.808Z,35.50
2017-07-18T19:47:00.636Z,35.90
2017-07-18T19:49:28.758Z,35.80
2017-07-18T19:51:56.664Z,36.90
2017-07-18T19:54:25.876Z,36.40
2017-07-18T19:56:54.407Z,36.30
2017-07-18T19:59:22.880Z,36.20
2017-07-18T20:01:51.542Z,37.40
2017-07-18T20:04:19.636Z,37.10
2017-07-18T20:06:48.203Z,37.40
2017-07-18T20:09:16.285Z,37.70
2017-07-18T20:11:44.103Z,36.50
2017-07-18T20:14:11.973Z,36.40
2017-07-18T20:16:39.778Z,37.20
2017-07-18T20:19:08.728Z,37.70
2017-07-18T20:21:37.127Z,36.60
2017-07-18T20:24:05.637Z,37.60
2017-07-18T20:26:33.410Z,37.50
2017-07-18T20:29:01.982Z,37.30
2017-07-18T20:31:30.151Z,37.50
2017-07-18T20:33:58.650Z,37.60
2017-07-18T20:36:27.451Z,37.50
2017-07-18T20:38:55.296Z,37.90
2017-07-18T20:41:23.157Z,38.10
2017-07-18T20:43:52.247Z,38.00
2017-07-18T20:46:20.163Z,37.90
2017-07-18T20:48:48.318Z,37.80
2017-07-18T20:51:17.023Z,37.80
2017-07-18T20:53:46.412Z,37.60
2017-07-18T20:56:14.850Z,38.30
2017-07-18T20:58:42.881Z,37.70
2017-07-18T21:01:11.394Z,37.90
2017-07-18T21:03:39.481Z,37.80
2017-07-18T21:06:07.970Z,37.70
2017-07-18T21:08:35.939Z,37.70
2017-07-18T21:11:03.967Z,37.70
2017-07-18T21:13:32.300Z,37.80
2017-07-18T21:16:00.880Z,37.80
2017-07-18T21:18:29.143Z,38.00
2017-07-18T21:20:57.284Z,37.00
2017-07-18T21:23:27.076Z,37.70
2017-07-18T21:25:56.310Z,37.70
2017-07-18T21:28:25.012Z,37.70
2017-07-18T21:30:54.324Z,37.50
2017-07-18T21:33:23.198Z,37.70
2017-07-18T21:35:51.038Z,37.10
2017-07-18T21:38:18.859Z,37.50
2017-07-18T21:40:46.592Z,37.50
2017-07-18T21:43:14.332Z,37.20
2017-07-18T21:45:42.162Z,37.70
2017-07-18T21:48:09.900Z,37.70
2017-07-18T21:50:37.688Z,37.80
2017-07-18T21:53:05.490Z,37.70
2017-07-18T21:55:33.222Z,37.40
2017-07-18T21:58:01.028Z,37.40
2017-07-18T22:00:28.852Z,37.70
2017-07-18T22:02:56.659Z,37.80
2017-07-18T22:05:24.467Z,37.90
2017-07-18T22:07:52.311Z,37.90
2017-07-18T22:10:20.099Z,37.90
2017-07-18T22:12:47.918Z,37.70
2017-07-18T22:15:15.640Z,37.60
2017-07-18T22:17:43.360Z,37.70
2017-07-18T22:20:11.072Z,37.70
2017-07-18T22:22:38.789Z,37.60
2017-07-18T22:25:06.648Z,37.60
2017-07-18T22:27:34.431Z,37.60
2017-07-18T22:30:02.189Z,37.70
2017-07-18T22:32:29.988Z,37.80
2017-07-18T22:34:57.756Z,38.00
2017-07-18T22:37:25.534Z,38.20
2017-07-18T22:39:53.284Z,38.90
2017-07-18T22:42:21.124Z,39.20
2017-07-18T22:44:48.873Z,39.00
2017-07-18T22:47:17.425Z,39.40
2017-07-18T22:49:46.426Z,39.60
2017-07-18T22:52:14.237Z,39.00
2017-07-18T22:54:42.059Z,39.90
2017-07-18T22:57:09.787Z,39.20
2017-07-18T22:59:37.681Z,39.10
2017-07-18T23:02:05.682Z,38.70
2017-07-18T23:04:33.444Z,38.80
2017-07-18T23:07:01.180Z,38.80
2017-07-18T23:09:28.980Z,38.80
2017-07-18T23:11:56.768Z,38.80
2017-07-18T23:14:24.504Z,38.80
2017-07-18T23:16:52.229Z,38.70
2017-07-18T23:19:20.032Z,38.60
2017-07-18T23:21:47.748Z,38.50
2017-07-18T23:24:15.505Z,38.40
2017-07-18T23:26:43.238Z,38.50
2017-07-18T23:29:11.059Z,38.50
2017-07-18T23:31:38.833Z,38.60
2017-07-18T23:34:06.688Z,38.50
2017-07-18T23:36:34.408Z,38.60
2017-07-18T23:39:02.192Z,38.60
2017-07-18T23:41:29.931Z,38.60
2017-07-18T23:43:57.717Z,38.60
2017-07-18T23:46:25.442Z,38.70
2017-07-18T23:48:53.243Z,38.70
2017-07-18T23:51:20.987Z,38.70
2017-07-18T23:53:48.799Z,38.60
2017-07-18T23:56:16.590Z,38.60
2017-07-18T23:58:44.327Z,38.80
